メインページ
METAR-TAF:

METAR-TAF

空港 :

Chetwynd, ブリティッシュコロンビア州, カナダ

緯度: 55-42N, 経度: 121-38W, 海抜: 609m

現時点の気象観測

当レポートは34分前の01:00(UTC)に作成
の風 3kt
気温 16°C
湿度 88%
気圧 1010 hPa
視程: 56.3km
高度16000ftの雲は散在している
高度18000ftの千切れ雲あり
高度20000ftの曇り

METAR: CYCQ 210100Z 36003KT 35SM SCT160 BKN180 OVC200 16/14 A2983 RMK AC3AS3CS2 DIST FU VLY W VIRGA SE-S LAST STFD OBS/NEXT 211300Z SLP116 DENSITY ALT 2800FT

時間: 18:34 (01:34 UTC)


TAF: 見つかりません

4,000以上の空港の気象観測と天気予報(METAR報とTAF報)

利用可能な観測所は地図上に黄色い丸と赤い丸で示す。

丸の上にカーソルを重ねると観測所名を参照できる。

次にクリックすると気象観測と天気予報を参照できる。

マップの切り替え:黒色「×」印の緑ボタンをクリックして拡大、「-」印の緑ボタンをクリックして縮小、緑色の三角印をクリックして隣りの地図に切り替え


METAR-TAF: